Preview of NWS' New Version of Forecast
This preview is not operational and should not be used for support decisions.

Terminal Aerodrome Forecast (TAF)

Issued by National Weather Service (NWS)

                            
000
FTUS42 KKEY 140253 AAC
TAFEYW
TAF AMD
KEYW 140253Z 1403/1424 09009KT P6SM SCT020
     FM141100 10006KT P6SM VCSH SCT020
     FM141800 12008KT P6SM SCT025=